createdAt,value
2018-07-27T00:01:28.930Z,54.06
2018-07-27T00:04:03.312Z,53.38
2018-07-27T00:06:36.169Z,53.00
2018-07-27T00:09:13.221Z,52.53
2018-07-27T00:11:43.983Z,52.04
2018-07-27T00:14:15.403Z,51.70
2018-07-27T00:16:44.982Z,51.37
2018-07-27T00:19:16.511Z,50.85
2018-07-27T00:21:48.827Z,50.19
2018-07-27T00:24:23.202Z,50.02
2018-07-27T00:26:56.213Z,49.57
2018-07-27T00:29:26.290Z,49.76
2018-07-27T00:31:57.155Z,49.02
2018-07-27T00:34:27.143Z,48.52
2018-07-27T00:36:57.629Z,49.13
2018-07-27T00:39:31.981Z,49.31
2018-07-27T00:42:03.379Z,48.57
2018-07-27T00:44:37.922Z,48.04
2018-07-27T00:47:09.332Z,47.01
2018-07-27T00:49:40.811Z,46.93
2018-07-27T00:52:13.709Z,46.69
2018-07-27T00:54:45.209Z,46.56
2018-07-27T00:57:15.281Z,45.26
2018-07-27T00:59:48.496Z,45.04
2018-07-27T01:02:21.372Z,44.86
2018-07-27T01:04:54.711Z,44.29
2018-07-27T01:07:24.571Z,43.98
2018-07-27T01:09:55.969Z,42.29
2018-07-27T01:12:28.887Z,41.53
2018-07-27T01:15:03.248Z,42.10
2018-07-27T01:17:37.279Z,41.26
2018-07-27T01:20:10.772Z,41.37
2018-07-27T01:22:42.317Z,41.41
2018-07-27T01:25:16.993Z,40.82
2018-07-27T01:27:50.846Z,41.07
2018-07-27T01:30:23.749Z,41.46
2018-07-27T01:32:55.188Z,41.32
2018-07-27T01:35:28.203Z,41.74
2018-07-27T01:38:02.902Z,41.47
2018-07-27T01:40:35.873Z,42.01
2018-07-27T01:43:08.842Z,41.98
2018-07-27T01:45:40.696Z,41.77
2018-07-27T01:48:10.565Z,42.13
2018-07-27T01:50:45.296Z,42.32
2018-07-27T01:53:19.928Z,42.57
2018-07-27T01:55:49.999Z,42.57
2018-07-27T01:58:22.919Z,42.42
2018-07-27T02:00:54.370Z,42.32
2018-07-27T02:03:27.332Z,41.58
2018-07-27T02:05:59.489Z,42.17
2018-07-27T02:08:31.144Z,42.46
2018-07-27T02:11:04.131Z,42.35
2018-07-27T02:13:37.172Z,42.05
2018-07-27T02:16:08.323Z,42.35
2018-07-27T02:18:41.184Z,42.33
2018-07-27T02:21:15.493Z,42.59
2018-07-27T02:23:45.675Z,42.67
2018-07-27T02:26:16.285Z,42.69
2018-07-27T02:28:47.788Z,42.40
2018-07-27T02:31:19.251Z,42.19
2018-07-27T02:33:50.810Z,42.50
2018-07-27T02:36:23.604Z,42.45
2018-07-27T02:38:53.523Z,42.18
2018-07-27T02:41:24.991Z,42.02
2018-07-27T02:43:58.048Z,42.07
2018-07-27T02:46:29.485Z,41.96
2018-07-27T02:49:01.117Z,42.20
2018-07-27T02:51:32.733Z,42.11
2018-07-27T02:54:02.654Z,42.06
2018-07-27T02:56:32.684Z,42.15
2018-07-27T02:59:04.231Z,42.12
2018-07-27T03:01:37.150Z,42.41
2018-07-27T03:04:10.824Z,42.51
2018-07-27T03:06:41.469Z,42.62
2018-07-27T03:09:14.807Z,43.03
2018-07-27T03:11:46.320Z,43.83
2018-07-27T03:14:16.256Z,44.73
2018-07-27T03:16:50.763Z,44.93
2018-07-27T03:19:23.848Z,46.71
2018-07-27T03:21:53.934Z,49.15
2018-07-27T03:24:27.291Z,49.93
2018-07-27T03:26:59.460Z,50.07
2018-07-27T03:29:30.017Z,50.59
2018-07-27T03:32:03.204Z,51.15
2018-07-27T03:34:35.061Z,51.90
2018-07-27T03:37:05.024Z,52.00
2018-07-27T03:39:38.224Z,52.11
2018-07-27T03:42:08.240Z,52.50
2018-07-27T03:44:41.272Z,53.09
2018-07-27T03:47:13.319Z,53.51
2018-07-27T03:49:45.358Z,53.29
2018-07-27T03:52:15.071Z,53.54
2018-07-27T03:54:45.394Z,53.19
2018-07-27T03:57:18.292Z,53.13
2018-07-27T03:59:53.658Z,53.08
2018-07-27T04:02:27.433Z,53.21
2018-07-27T04:05:02.896Z,52.73
2018-07-27T04:07:35.562Z,51.98
2018-07-27T04:10:09.331Z,51.47
2018-07-27T04:12:43.861Z,51.88
2018-07-27T04:15:13.782Z,51.51
2018-07-27T04:17:54.585Z,51.50
2018-07-27T04:20:26.013Z,51.02
2018-07-27T04:22:59.139Z,50.53
2018-07-27T04:25:32.024Z,50.67
2018-07-27T04:28:01.977Z,49.70
2018-07-27T04:30:31.891Z,49.56
2018-07-27T04:33:04.802Z,48.87
2018-07-27T04:35:36.641Z,48.25
2018-07-27T04:38:09.558Z,47.51
2018-07-27T04:40:39.638Z,46.68
2018-07-27T04:43:11.007Z,45.84
2018-07-27T04:45:42.529Z,45.30
2018-07-27T04:48:16.899Z,43.90
2018-07-27T04:50:47.839Z,44.77
2018-07-27T04:53:19.274Z,42.85
2018-07-27T04:55:49.242Z,41.91
2018-07-27T04:58:22.260Z,41.93
2018-07-27T05:00:55.076Z,40.74
2018-07-27T05:03:24.296Z,39.85
2018-07-27T05:05:57.322Z,38.93
2018-07-27T05:08:28.775Z,38.63
2018-07-27T05:11:01.692Z,39.25
2018-07-27T05:13:31.732Z,39.42
2018-07-27T05:16:03.584Z,39.39
2018-07-27T05:18:35.601Z,39.32
2018-07-27T05:21:07.084Z,39.55
2018-07-27T05:23:38.018Z,38.47
2018-07-27T05:26:11.608Z,38.50
2018-07-27T05:28:43.105Z,38.18
2018-07-27T05:31:14.471Z,37.26
2018-07-27T05:33:46.192Z,36.62
2018-07-27T05:36:17.570Z,36.41
2018-07-27T05:38:49.015Z,35.72
2018-07-27T05:41:20.412Z,34.52
2018-07-27T05:43:54.817Z,34.39
2018-07-27T05:46:26.648Z,33.48
2018-07-27T05:48:58.417Z,34.26
2018-07-27T05:51:32.715Z,33.53
2018-07-27T05:54:05.534Z,32.91
2018-07-27T05:56:36.912Z,33.25
2018-07-27T05:59:08.568Z,32.99
2018-07-27T06:01:41.403Z,33.08
2018-07-27T06:04:12.757Z,32.32
2018-07-27T06:06:45.611Z,32.40
2018-07-27T06:09:19.876Z,32.49
2018-07-27T06:11:52.439Z,32.57
2018-07-27T06:14:25.390Z,30.75
2018-07-27T06:16:59.688Z,30.44
2018-07-27T06:19:31.091Z,30.38
2018-07-27T06:22:04.887Z,30.50
2018-07-27T06:25:03.068Z,30.79
2018-07-27T06:27:34.939Z,29.78
2018-07-27T06:30:06.388Z,29.01
2018-07-27T06:32:39.064Z,30.58
2018-07-27T06:35:12.357Z,29.29
2018-07-27T06:37:43.785Z,30.25
2018-07-27T06:40:15.166Z,30.57
2018-07-27T06:42:46.598Z,30.43
2018-07-27T06:45:18.025Z,28.71
2018-07-27T06:47:47.965Z,28.85
2018-07-27T06:50:20.449Z,30.10
2018-07-27T06:52:53.526Z,28.63
2018-07-27T06:55:26.886Z,29.09
2018-07-27T06:57:58.239Z,29.27
2018-07-27T07:00:28.688Z,27.92
2018-07-27T07:03:00.672Z,27.92
2018-07-27T07:05:35.862Z,28.33
2018-07-27T07:08:10.264Z,27.06
2018-07-27T07:10:43.127Z,26.65
2018-07-27T07:13:16.177Z,27.45
2018-07-27T07:15:47.602Z,26.73
2018-07-27T07:18:17.504Z,27.16
2018-07-27T07:20:48.214Z,27.79
2018-07-27T07:23:20.924Z,26.28
2018-07-27T07:25:55.600Z,27.28
2018-07-27T07:28:26.730Z,26.57
2018-07-27T07:30:59.502Z,27.37
2018-07-27T07:33:30.992Z,26.58
2018-07-27T07:36:03.992Z,26.59
2018-07-27T07:38:35.387Z,25.22
2018-07-27T07:41:06.828Z,25.85
2018-07-27T07:43:38.308Z,26.71
2018-07-27T07:46:11.276Z,25.94
2018-07-27T07:48:42.974Z,25.38
2018-07-27T07:51:14.344Z,26.30
2018-07-27T07:53:47.138Z,25.62
2018-07-27T07:56:20.135Z,25.46
2018-07-27T07:58:50.006Z,24.80
2018-07-27T08:01:21.394Z,24.38
2018-07-27T08:03:54.477Z,25.88
2018-07-27T08:06:28.762Z,25.55
2018-07-27T08:09:00.162Z,25.44
2018-07-27T08:11:33.047Z,23.99
2018-07-27T08:14:06.296Z,24.37
2018-07-27T08:16:40.479Z,24.38
2018-07-27T08:19:13.459Z,23.86
2018-07-27T08:21:44.888Z,23.82
2018-07-27T08:24:17.195Z,24.01
2018-07-27T08:27:07.993Z,23.85
2018-07-27T08:29:56.233Z,23.55
2018-07-27T08:32:27.910Z,23.37
2018-07-27T08:35:00.717Z,22.98
2018-07-27T08:37:33.583Z,23.10
2018-07-27T08:40:06.365Z,23.60
2018-07-27T08:42:39.259Z,23.80
2018-07-27T08:45:12.374Z,22.48
2018-07-27T08:47:45.202Z,22.72
2018-07-27T08:50:18.231Z,22.01
2018-07-27T08:52:52.572Z,23.69
2018-07-27T08:55:27.233Z,22.25
2018-07-27T08:58:00.016Z,22.60
2018-07-27T09:00:59.460Z,22.20
2018-07-27T09:03:33.752Z,22.81
2018-07-27T09:06:06.869Z,21.73
2018-07-27T09:08:39.753Z,21.78
2018-07-27T09:11:14.305Z,23.18
2018-07-27T09:13:47.158Z,21.56
2018-07-27T09:16:21.660Z,22.35
2018-07-27T09:18:53.924Z,23.01
2018-07-27T09:21:25.380Z,22.06
2018-07-27T09:23:57.107Z,21.52
2018-07-27T09:26:29.302Z,20.88
2018-07-27T09:29:02.053Z,20.93
2018-07-27T09:31:33.508Z,20.39
2018-07-27T09:34:06.443Z,20.90
2018-07-27T09:36:36.408Z,20.19
2018-07-27T09:39:12.501Z,19.89
2018-07-27T09:41:46.783Z,20.62
2018-07-27T09:44:19.536Z,21.98
2018-07-27T09:46:52.392Z,20.31
2018-07-27T09:49:23.815Z,19.53
2018-07-27T09:51:56.901Z,19.59
2018-07-27T09:54:29.559Z,19.95
2018-07-27T09:57:02.621Z,19.98
2018-07-27T09:59:33.963Z,20.09
2018-07-27T10:02:04.328Z,20.03
2018-07-27T10:04:38.601Z,20.81
2018-07-27T10:07:11.394Z,20.51
2018-07-27T10:09:44.295Z,21.15
2018-07-27T10:12:16.378Z,20.36
2018-07-27T10:14:50.738Z,19.45
2018-07-27T10:17:22.676Z,19.73
2018-07-27T10:19:55.481Z,20.17
2018-07-27T10:23:54.944Z,19.60
2018-07-27T10:26:27.844Z,20.11
2018-07-27T10:29:00.698Z,21.46
2018-07-27T10:31:32.630Z,19.37
2018-07-27T10:34:05.372Z,19.69
2018-07-27T10:36:36.821Z,20.15
2018-07-27T10:39:12.961Z,18.87
2018-07-27T10:41:45.063Z,19.56
2018-07-27T10:44:16.512Z,19.74
2018-07-27T10:46:47.848Z,19.20
2018-07-27T10:49:19.235Z,19.23
2018-07-27T10:51:50.559Z,18.23
2018-07-27T10:54:21.725Z,19.69
2018-07-27T10:56:53.225Z,19.48
2018-07-27T10:59:26.138Z,19.32
2018-07-27T11:01:59.006Z,20.31
2018-07-27T11:04:31.760Z,19.85
2018-07-27T11:07:04.912Z,18.60
2018-07-27T11:09:34.779Z,19.75
2018-07-27T11:12:09.058Z,18.56
2018-07-27T11:14:42.527Z,18.96
2018-07-27T11:17:16.831Z,18.83
2018-07-27T11:19:48.178Z,19.69
2018-07-27T11:22:22.430Z,19.94
2018-07-27T11:24:55.248Z,20.52
2018-07-27T11:27:28.074Z,20.57
2018-07-27T11:30:02.477Z,20.05
2018-07-27T11:32:32.888Z,20.91
2018-07-27T11:35:04.172Z,20.85
2018-07-27T11:37:37.580Z,20.31
2018-07-27T11:40:10.681Z,19.56
2018-07-27T11:42:42.040Z,19.47
2018-07-27T11:45:14.246Z,20.38
2018-07-27T11:47:47.288Z,20.77
2018-07-27T11:50:18.736Z,21.43
2018-07-27T11:52:51.943Z,20.16
2018-07-27T11:55:24.785Z,21.55
2018-07-27T11:57:57.944Z,20.39
2018-07-27T12:00:29.348Z,21.26
2018-07-27T12:03:02.224Z,21.38
2018-07-27T12:05:35.128Z,21.77
2018-07-27T12:08:08.041Z,21.30
2018-07-27T12:10:39.436Z,21.25
2018-07-27T12:13:12.403Z,20.63
2018-07-27T12:15:46.759Z,20.18
2018-07-27T12:18:18.268Z,19.96
2018-07-27T12:20:51.270Z,21.35
2018-07-27T12:23:21.674Z,20.96
2018-07-27T12:25:55.094Z,21.77
2018-07-27T12:28:27.899Z,20.92
2018-07-27T12:30:59.293Z,21.36
2018-07-27T12:33:30.650Z,21.01
2018-07-27T12:36:04.964Z,21.53
2018-07-27T12:38:36.324Z,20.71
2018-07-27T12:41:09.212Z,21.17
2018-07-27T12:43:39.099Z,20.20
2018-07-27T12:46:12.079Z,20.73
2018-07-27T12:48:43.395Z,21.95
2018-07-27T12:51:16.215Z,20.69
2018-07-27T12:53:47.644Z,21.19
2018-07-27T12:56:17.401Z,21.58
2018-07-27T12:58:47.622Z,21.96
2018-07-27T13:01:19.004Z,20.74
2018-07-27T13:03:50.379Z,21.16
2018-07-27T13:06:23.266Z,21.51
2018-07-27T13:08:54.636Z,20.33
2018-07-27T13:11:27.443Z,21.74
2018-07-27T13:13:58.861Z,20.77
2018-07-27T13:16:32.246Z,20.72
2018-07-27T13:19:05.435Z,20.49
2018-07-27T13:21:36.781Z,20.42
2018-07-27T13:24:08.023Z,19.37
2018-07-27T13:26:39.418Z,19.65
2018-07-27T13:29:10.693Z,19.19
2018-07-27T13:31:55.606Z,19.86
2018-07-27T13:34:56.979Z,20.10
2018-07-27T13:37:33.545Z,20.33
2018-07-27T13:40:06.320Z,20.18
2018-07-27T13:42:38.745Z,19.81
2018-07-27T13:45:10.151Z,21.38
2018-07-27T13:47:40.562Z,20.61
2018-07-27T13:50:11.310Z,20.12
2018-07-27T13:52:41.230Z,20.76
2018-07-27T13:55:11.115Z,20.91
2018-07-27T13:57:41.565Z,20.58
2018-07-27T14:00:13.143Z,20.92
2018-07-27T14:02:43.087Z,20.44
2018-07-27T14:05:15.957Z,20.00
2018-07-27T14:07:47.232Z,20.09
2018-07-27T14:10:18.633Z,19.34
2018-07-27T14:12:51.761Z,20.01
2018-07-27T14:15:24.971Z,19.86
2018-07-27T14:17:56.349Z,20.05
2018-07-27T14:20:29.556Z,21.26
2018-07-27T14:23:01.445Z,19.95
2018-07-27T14:25:31.424Z,21.38
2018-07-27T14:28:04.108Z,20.84
2018-07-27T14:30:35.474Z,20.68
2018-07-27T14:33:06.833Z,21.79
2018-07-27T14:35:38.858Z,19.48
2018-07-27T14:38:10.198Z,20.08
2018-07-27T14:40:41.613Z,19.21
2018-07-27T14:43:13.326Z,19.61
2018-07-27T14:45:43.198Z,21.09
2018-07-27T14:48:14.508Z,18.60
2018-07-27T14:50:46.532Z,19.29
2018-07-27T14:53:17.887Z,20.35
2018-07-27T14:55:49.182Z,20.10
2018-07-27T14:58:18.312Z,21.50
2018-07-27T15:00:48.144Z,19.75
2018-07-27T15:03:20.417Z,21.12
2018-07-27T15:05:51.777Z,19.84
2018-07-27T15:08:24.735Z,20.03
2018-07-27T15:10:58.158Z,20.52
2018-07-27T15:13:32.409Z,19.45
2018-07-27T15:16:03.787Z,20.38
2018-07-27T15:18:35.224Z,19.96
2018-07-27T15:21:05.049Z,20.34
2018-07-27T15:23:34.975Z,20.39
2018-07-27T15:26:04.788Z,20.29
2018-07-27T15:28:38.060Z,20.79
2018-07-27T15:31:10.093Z,20.50
2018-07-27T15:33:42.833Z,19.94
2018-07-27T15:36:14.095Z,19.88
2018-07-27T15:38:46.885Z,19.92
2018-07-27T15:41:19.948Z,20.27
2018-07-27T15:43:52.847Z,19.16
2018-07-27T15:46:22.813Z,19.66
2018-07-27T15:48:54.122Z,19.91
2018-07-27T15:51:25.524Z,19.51
2018-07-27T15:53:56.809Z,20.02
2018-07-27T15:56:28.951Z,21.40
2018-07-27T15:59:00.381Z,20.01
2018-07-27T16:01:33.316Z,20.37
2018-07-27T16:04:04.764Z,20.34
2018-07-27T16:06:35.046Z,20.34
2018-07-27T16:09:10.250Z,19.36
2018-07-27T16:11:40.109Z,20.23
2018-07-27T16:14:10.435Z,20.46
2018-07-27T16:16:41.884Z,20.36
2018-07-27T16:19:15.214Z,20.46
2018-07-27T16:21:47.138Z,20.23
2018-07-27T16:24:16.951Z,20.09
2018-07-27T16:26:48.771Z,21.90
2018-07-27T16:29:22.197Z,20.51
2018-07-27T16:31:55.948Z,21.39
2018-07-27T16:34:26.363Z,20.68
2018-07-27T16:36:57.752Z,20.66
2018-07-27T16:39:30.669Z,20.98
2018-07-27T16:42:01.179Z,20.71
2018-07-27T16:44:33.162Z,20.30
2018-07-27T16:47:04.742Z,21.24
2018-07-27T16:49:36.090Z,20.37
2018-07-27T16:52:07.675Z,22.04
2018-07-27T16:54:39.023Z,22.43
2018-07-27T16:57:10.428Z,21.77
2018-07-27T16:59:41.704Z,23.23
2018-07-27T17:02:13.345Z,22.64
2018-07-27T17:04:45.516Z,22.72
2018-07-27T17:07:19.997Z,22.57
2018-07-27T17:09:51.347Z,21.51
2018-07-27T17:12:22.776Z,22.86
2018-07-27T17:14:55.651Z,22.70
2018-07-27T17:17:25.585Z,23.48
2018-07-27T17:20:00.013Z,23.86
2018-07-27T17:22:31.819Z,24.62
2018-07-27T17:25:03.368Z,23.80
2018-07-27T17:27:36.456Z,24.39
2018-07-27T17:30:10.963Z,25.76
2018-07-27T17:32:40.868Z,24.71
2018-07-27T17:35:11.284Z,24.52
2018-07-27T17:37:43.240Z,24.73
2018-07-27T17:40:14.706Z,24.09
2018-07-27T17:42:47.367Z,24.35
2018-07-27T17:45:17.282Z,24.97
2018-07-27T17:47:49.719Z,24.74
2018-07-27T17:50:21.869Z,25.24
2018-07-27T17:52:53.310Z,25.58
2018-07-27T17:55:26.391Z,25.52
2018-07-27T17:57:57.250Z,25.46
2018-07-27T18:00:28.340Z,25.71
2018-07-27T18:03:00.290Z,25.99
2018-07-27T18:05:32.578Z,26.04
2018-07-27T18:08:03.946Z,26.57
2018-07-27T18:10:36.910Z,26.29
2018-07-27T18:13:08.269Z,26.83
2018-07-27T18:15:38.886Z,26.71
2018-07-27T18:18:11.623Z,27.08
2018-07-27T18:20:41.552Z,27.08
2018-07-27T18:23:13.091Z,27.61
2018-07-27T18:25:46.486Z,27.63
2018-07-27T18:28:16.511Z,28.21
2018-07-27T18:30:47.916Z,28.47
2018-07-27T18:33:19.314Z,28.80
2018-07-27T18:35:50.944Z,28.97
2018-07-27T18:38:23.202Z,29.07
2018-07-27T18:40:54.700Z,29.58
2018-07-27T18:43:26.891Z,29.69
2018-07-27T18:45:58.295Z,29.78
2018-07-27T18:48:29.613Z,30.24
2018-07-27T18:51:01.340Z,30.36
2018-07-27T18:53:32.733Z,30.80
2018-07-27T18:56:05.566Z,30.95
2018-07-27T18:58:36.977Z,31.15
2018-07-27T19:01:08.484Z,31.40
2018-07-27T19:03:41.340Z,31.53
2018-07-27T19:06:14.361Z,31.72
2018-07-27T19:08:45.811Z,32.11
2018-07-27T19:11:17.203Z,32.16
2018-07-27T19:13:50.029Z,32.32
2018-07-27T19:16:20.007Z,32.55
2018-07-27T19:18:51.474Z,32.49
2018-07-27T19:21:22.829Z,32.63
2018-07-27T19:23:55.669Z,32.97
2018-07-27T19:26:29.072Z,33.04
2018-07-27T19:29:00.750Z,33.27
2018-07-27T19:31:32.139Z,33.69
2018-07-27T19:34:02.145Z,33.73
2018-07-27T19:36:35.205Z,33.88
2018-07-27T19:39:11.775Z,33.99
2018-07-27T19:41:43.589Z,34.16
2018-07-27T19:44:18.124Z,34.26
2018-07-27T19:46:50.883Z,34.24
2018-07-27T19:49:22.322Z,34.34
2018-07-27T19:51:55.397Z,34.50
2018-07-27T19:54:25.300Z,34.64
2018-07-27T19:56:58.072Z,34.66
2018-07-27T19:59:29.477Z,34.84
2018-07-27T20:02:02.452Z,35.21
2018-07-27T20:04:35.206Z,35.40
2018-07-27T20:07:08.705Z,35.57
2018-07-27T20:09:40.018Z,35.73
2018-07-27T20:12:11.698Z,35.82
2018-07-27T20:14:44.544Z,35.76
2018-07-27T20:17:16.005Z,35.72
2018-07-27T20:19:46.277Z,35.87
2018-07-27T20:22:16.767Z,35.86
2018-07-27T20:24:53.160Z,36.09
2018-07-27T20:27:23.065Z,36.13
2018-07-27T20:29:54.379Z,36.41
2018-07-27T20:32:26.565Z,36.78
2018-07-27T20:34:59.702Z,36.49
2018-07-27T20:37:31.883Z,36.87
2018-07-27T20:40:04.601Z,36.61
2018-07-27T20:42:34.557Z,36.26
2018-07-27T20:45:09.731Z,36.67
2018-07-27T20:47:39.605Z,36.56
2018-07-27T20:50:12.156Z,36.58
2018-07-27T20:52:42.664Z,36.68
2018-07-27T20:55:14.070Z,36.76
2018-07-27T20:57:45.887Z,37.24
2018-07-27T21:00:17.901Z,37.19
2018-07-27T21:02:51.035Z,37.57
2018-07-27T21:05:23.860Z,37.24
2018-07-27T21:07:55.415Z,37.05
2018-07-27T21:10:26.735Z,37.22
2018-07-27T21:12:58.114Z,37.28
2018-07-27T21:15:29.505Z,37.37
2018-07-27T21:18:00.952Z,37.38
2018-07-27T21:20:35.364Z,37.52
2018-07-27T21:23:06.828Z,37.43
2018-07-27T21:25:39.796Z,37.54
2018-07-27T21:28:11.530Z,37.66
2018-07-27T21:30:42.939Z,37.68
2018-07-27T21:33:14.372Z,37.83
2018-07-27T21:35:46.580Z,37.78
2018-07-27T21:38:19.677Z,37.95
2018-07-27T21:40:50.168Z,38.11
2018-07-27T21:43:22.040Z,38.09
2018-07-27T21:45:55.264Z,38.19
2018-07-27T21:48:29.280Z,38.33
2018-07-27T21:51:00.735Z,38.56
2018-07-27T21:53:32.120Z,38.63
2018-07-27T21:56:03.548Z,38.89
2018-07-27T21:58:34.986Z,38.85
2018-07-27T22:01:06.463Z,39.08
2018-07-27T22:03:39.740Z,39.01
2018-07-27T22:06:12.902Z,39.10
2018-07-27T22:08:44.371Z,39.15
2018-07-27T22:11:17.229Z,39.28
2018-07-27T22:13:51.508Z,39.53
2018-07-27T22:16:24.486Z,39.64
2018-07-27T22:18:57.415Z,39.69
2018-07-27T22:21:31.676Z,39.73
2018-07-27T22:24:03.123Z,39.86
2018-07-27T22:26:37.040Z,39.91
2018-07-27T22:29:09.515Z,40.07
2018-07-27T22:31:39.434Z,40.15
2018-07-27T22:34:09.420Z,40.34
2018-07-27T22:36:41.268Z,40.33
2018-07-27T22:39:14.190Z,40.57
2018-07-27T22:41:44.194Z,40.65
2018-07-27T22:44:15.903Z,40.83
2018-07-27T22:46:48.776Z,40.88
2018-07-27T22:49:21.659Z,41.06
2018-07-27T22:51:51.794Z,41.45
2018-07-27T22:54:24.613Z,41.86
2018-07-27T22:56:58.138Z,42.28
2018-07-27T22:59:32.642Z,42.57
2018-07-27T23:02:04.464Z,42.95
2018-07-27T23:04:37.333Z,43.20
2018-07-27T23:07:12.106Z,43.33
2018-07-27T23:09:43.672Z,43.72
2018-07-27T23:12:17.978Z,43.87
2018-07-27T23:14:48.819Z,43.68
2018-07-27T23:17:23.230Z,44.04
2018-07-27T23:19:54.650Z,44.26
2018-07-27T23:22:28.027Z,44.45
2018-07-27T23:25:00.895Z,45.06
2018-07-27T23:27:35.272Z,45.57
2018-07-27T23:30:06.938Z,46.26
2018-07-27T23:32:39.793Z,45.01
2018-07-27T23:35:08.931Z,43.15
2018-07-27T23:37:41.054Z,43.65
2018-07-27T23:40:12.537Z,41.20
2018-07-27T23:42:46.903Z,42.09
2018-07-27T23:45:18.628Z,43.09
2018-07-27T23:47:50.217Z,45.75
2018-07-27T23:50:23.029Z,47.07
2018-07-27T23:52:57.685Z,49.65
2018-07-27T23:55:32.076Z,51.41
2018-07-27T23:58:05.655Z,52.76
